Time;durP1;ratioP1;P1;durP2;ratioP2;P2;SDS_P1;SDS_P2;PMS_P1;PMS_P2;Temp;Humidity;BMP_temperature;BMP_pressure;BME280_temperature;BME280_humidity;BME280_pressure;Samples;Min_cycle;Max_cycle;Signal;HPM_P1;HPM_P2
2022/01/07 00:01:47;;;;;;;5.13;4.82;;;;;;;2.56;100.00;101508.19;5231977;28;20109;-60
2022/01/07 00:04:17;;;;;;;5.55;5.15;;;;;;;2.55;100.00;101499.38;5232076;28;20020;-58
2022/01/07 00:06:48;;;;;;;8.73;5.95;;;;;;;2.56;100.00;101489.53;5232162;28;20017;-59
2022/01/07 00:09:18;;;;;;;8.02;5.00;;;;;;;2.56;100.00;101493.00;5231969;28;20534;-60
2022/01/07 00:11:49;;;;;;;5.15;4.70;;;;;;;2.40;100.00;101455.91;5232025;28;20035;-60
2022/01/07 00:14:19;;;;;;;6.13;5.20;;;;;;;2.56;100.00;101482.34;5231462;28;20043;-61
2022/01/07 00:16:50;;;;;;;4.78;4.55;;;;;;;2.59;100.00;101484.63;5231545;28;20043;-59
2022/01/07 00:19:20;;;;;;;7.45;5.30;;;;;;;2.59;100.00;101484.63;5231598;28;20051;-59
2022/01/07 00:21:51;;;;;;;13.65;5.22;;;;;;;2.55;100.00;101463.88;5231607;28;20024;-59
2022/01/07 00:24:21;;;;;;;6.10;5.57;;;;;;;2.60;100.00;101472.94;5231527;28;20120;-62
2022/01/07 00:26:52;;;;;;;5.20;4.53;;;;;;;2.58;100.00;101466.16;5231643;28;20627;-61
2022/01/07 00:29:22;;;;;;;7.50;5.70;;;;;;;2.37;100.00;101421.63;5248281;28;20033;-62
2022/01/07 00:31:53;;;;;;;6.13;5.53;;;;;;;2.60;100.00;101453.47;5231485;28;20028;-61
2022/01/07 00:34:23;;;;;;;4.25;4.05;;;;;;;2.65;100.00;101451.88;5231061;28;20029;-62
2022/01/07 00:36:54;;;;;;;6.32;5.05;;;;;;;2.65;100.00;101443.88;5231308;28;20029;-62
2022/01/07 00:39:24;;;;;;;4.88;4.47;;;;;;;2.67;100.00;101444.50;5231264;28;20029;-60
2022/01/07 00:41:55;;;;;;;5.82;5.28;;;;;;;2.67;100.00;101433.00;5230954;28;20035;-60
2022/01/07 00:44:25;;;;;;;5.70;3.88;;;;;;;2.66;100.00;101428.69;5230715;28;20032;-59
2022/01/07 00:46:56;;;;;;;5.65;4.65;;;;;;;2.67;100.00;101436.50;5231035;28;20107;-60
2022/01/07 00:49:26;;;;;;;5.35;4.85;;;;;;;2.69;100.00;101434.47;5231142;28;20056;-59
2022/01/07 00:51:59;;;;;;;5.43;4.68;;;;;;;2.71;100.00;101411.13;5230972;28;20059;-62
2022/01/07 00:54:29;;;;;;;5.03;4.55;;;;;;;2.77;100.00;101409.53;5230559;28;20435;-62
2022/01/07 00:57:00;;;;;;;9.57;4.00;;;;;;;2.67;100.00;101380.50;5230589;28;20024;-63
2022/01/07 00:59:30;;;;;;;10.00;4.25;;;;;;;2.80;100.00;101400.31;5230349;28;20078;-60
2022/01/07 01:02:02;;;;;;;6.55;5.28;;;;;;;2.79;100.00;101396.00;5230442;28;20048;-62
2022/01/07 01:04:32;;;;;;;4.30;3.90;;;;;;;2.75;100.00;101378.72;5230884;28;20495;-60
2022/01/07 01:07:03;;;;;;;5.32;5.03;;;;;;;2.79;100.00;101393.34;5230581;28;20025;-60
2022/01/07 01:09:34;;;;;;;4.07;3.78;;;;;;;2.74;100.00;101387.75;5230573;28;20021;-63
2022/01/07 01:12:05;;;;;;;4.95;4.47;;;;;;;2.78;100.00;101395.19;5230505;28;20166;-62
2022/01/07 01:14:35;;;;;;;14.57;5.97;;;;;;;2.80;100.00;101395.81;5230135;28;20032;-60
2022/01/07 01:17:07;;;;;;;5.03;4.30;;;;;;;2.81;100.00;101394.81;5230302;28;20021;-62
2022/01/07 01:19:37;;;;;;;4.82;4.35;;;;;;;2.78;100.00;101391.69;5230436;28;20040;-62
2022/01/07 01:22:09;;;;;;;5.80;5.28;;;;;;;2.80;100.00;101390.47;5230583;28;20427;-59
2022/01/07 01:24:39;;;;;;;5.68;4.88;;;;;;;2.79;100.00;101382.66;5230152;28;20403;-62
2022/01/07 01:27:10;;;;;;;4.88;4.13;;;;;;;2.39;100.00;101315.66;5247474;28;20326;-59
2022/01/07 01:29:40;;;;;;;5.35;4.00;;;;;;;2.82;100.00;101390.28;5230266;28;20024;-62
2022/01/07 01:32:11;;;;;;;6.38;4.65;;;;;;;2.82;100.00;101380.44;5229985;28;20035;-63
2022/01/07 01:34:41;;;;;;;3.92;3.67;;;;;;;2.81;100.00;101378.81;5229973;28;20055;-60
2022/01/07 01:37:12;;;;;;;3.85;3.60;;;;;;;2.80;100.00;101384.31;5229934;28;20012;-57
2022/01/07 01:39:42;;;;;;;6.00;4.45;;;;;;;2.78;100.00;101378.34;5229960;28;20040;-59
2022/01/07 01:42:13;;;;;;;15.32;5.25;;;;;;;2.69;100.00;101370.47;5246375;28;20403;-62
2022/01/07 01:44:44;;;;;;;7.75;5.68;;;;;;;2.63;100.00;101370.41;5229633;28;20032;-63
2022/01/07 01:47:14;;;;;;;15.50;5.30;;;;;;;2.53;100.00;101360.09;5229970;28;20484;-62
2022/01/07 01:49:44;;;;;;;12.18;6.22;;;;;;;2.55;100.00;101363.41;5229792;28;20067;-59
2022/01/07 01:52:15;;;;;;;4.90;4.63;;;;;;;2.53;100.00;101365.41;5229576;28;20075;-58
2022/01/07 01:54:46;;;;;;;5.68;4.18;;;;;;;2.57;100.00;101361.38;5228523;28;20033;-59
2022/01/07 01:57:17;;;;;;;10.93;4.32;;;;;;;2.46;100.00;101329.88;5229476;28;20028;-59
2022/01/07 01:59:47;;;;;;;6.28;5.53;;;;;;;2.49;100.00;101342.00;5229629;28;20093;-58
2022/01/07 02:02:18;;;;;;;6.13;5.68;;;;;;;2.56;100.00;101343.72;5229605;28;20031;-56
2022/01/07 02:04:48;;;;;;;7.95;4.63;;;;;;;2.58;100.00;101335.53;5229151;28;20059;-59
2022/01/07 02:07:19;;;;;;;8.95;4.95;;;;;;;2.63;100.00;101349.91;5229346;28;20021;-57
2022/01/07 02:09:49;;;;;;;9.50;5.57;;;;;;;2.62;100.00;101337.59;5229164;28;20029;-57
2022/01/07 02:12:20;;;;;;;6.55;6.00;;;;;;;2.62;100.00;101342.94;5229523;28;20483;-58
2022/01/07 02:14:53;;;;;;;6.18;5.55;;;;;;;2.33;100.00;101303.91;5228875;28;20039;-59
2022/01/07 02:17:25;;;;;;;5.88;5.18;;;;;;;2.52;100.00;101333.63;5229120;28;20435;-61
2022/01/07 02:19:56;;;;;;;6.72;6.32;;;;;;;2.42;100.00;101317.13;5228613;28;20029;-60
2022/01/07 02:22:27;;;;;;;12.52;6.80;;;;;;;2.34;100.00;101318.88;5229229;28;20051;-60
2022/01/07 02:24:57;;;;;;;7.03;6.25;;;;;;;2.30;100.00;101322.16;5228620;28;20032;-60
2022/01/07 02:27:29;;;;;;;8.88;6.30;;;;;;;2.28;100.00;101310.84;5228852;28;20029;-62
2022/01/07 02:30:00;;;;;;;6.45;6.13;;;;;;;2.25;100.00;101306.72;5228996;28;20376;-60
2022/01/07 02:32:30;;;;;;;7.65;6.90;;;;;;;2.18;100.00;101294.34;5229257;28;20021;-61
2022/01/07 02:35:01;;;;;;;8.63;6.40;;;;;;;2.19;100.00;101302.16;5228506;28;20077;-60
2022/01/07 02:37:31;;;;;;;6.05;5.72;;;;;;;2.19;100.00;101304.81;5246769;28;20020;-59
2022/01/07 02:40:04;;;;;;;6.30;5.90;;;;;;;2.20;100.00;101302.97;5228591;28;20039;-60
2022/01/07 02:42:35;;;;;;;7.35;6.90;;;;;;;2.20;100.00;101298.47;5228582;28;20024;-60
2022/01/07 02:45:08;;;;;;;6.82;6.32;;;;;;;2.07;100.00;101276.19;5228135;28;20032;-60
2022/01/07 02:47:50;;;;;;;6.30;5.95;;;;;;;2.20;100.00;101295.00;5228712;28;20021;-59
2022/01/07 02:50:24;;;;;;;7.38;6.90;;;;;;;2.20;100.00;101292.31;5228349;28;20026;-60
2022/01/07 02:52:55;;;;;;;8.73;8.23;;;;;;;2.18;100.00;101281.84;5228559;28;20628;-60
2022/01/07 02:55:27;;;;;;;7.03;6.57;;;;;;;2.17;100.00;101284.72;5228067;28;20029;-62
2022/01/07 02:57:57;;;;;;;7.78;7.05;;;;;;;2.16;100.00;101278.56;5228199;28;20094;-59
2022/01/07 03:00:28;;;;;;;6.82;6.43;;;;;;;2.14;100.00;101269.94;5228237;28;20040;-61
2022/01/07 03:03:00;;;;;;;8.30;7.80;;;;;;;2.14;100.00;101261.09;5228305;28;20024;-60
2022/01/07 03:05:31;;;;;;;10.00;7.25;;;;;;;2.11;100.00;101267.63;5227970;28;20062;-59
2022/01/07 03:08:02;;;;;;;7.65;6.93;;;;;;;2.13;100.00;101265.59;5228659;28;20028;-60
2022/01/07 03:10:33;;;;;;;6.40;6.00;;;;;;;2.14;100.00;101277.09;5246164;28;20033;-63
2022/01/07 03:13:05;;;;;;;7.80;7.32;;;;;;;2.15;100.00;101273.41;5228303;28;20431;-60
2022/01/07 03:15:38;;;;;;;7.20;6.80;;;;;;;2.14;100.00;101269.09;5227834;28;20039;-60
2022/01/07 03:18:09;;;;;;;8.18;7.50;;;;;;;2.14;100.00;101267.25;5228211;28;20430;-60
2022/01/07 03:20:40;;;;;;;7.70;6.68;;;;;;;2.15;100.00;101260.09;5228049;28;20123;-58
2022/01/07 03:23:12;;;;;;;8.43;7.63;;;;;;;2.14;100.00;101269.94;5228143;28;20031;-60
2022/01/07 03:25:46;;;;;;;11.65;7.38;;;;;;;2.15;100.00;101271.56;5227743;28;20032;-60
2022/01/07 03:28:17;;;;;;;7.50;6.80;;;;;;;2.16;100.00;101269.72;5228145;28;20472;-60
2022/01/07 03:30:48;;;;;;;7.63;7.03;;;;;;;2.17;100.00;101263.41;5228350;28;20040;-59
2022/01/07 03:33:19;;;;;;;7.78;7.20;;;;;;;2.17;100.00;101250.06;5227957;28;20047;-62
2022/01/07 03:35:53;;;;;;;7.20;6.63;;;;;;;2.16;100.00;101251.91;5228126;28;20029;-60
2022/01/07 03:38:24;;;;;;;7.65;7.07;;;;;;;2.10;100.00;101233.19;5228067;28;20039;-60
2022/01/07 03:40:55;;;;;;;8.68;7.88;;;;;;;2.10;100.00;101227.88;5228141;28;20033;-59
2022/01/07 03:43:25;;;;;;;7.60;6.90;;;;;;;2.16;100.00;101232.44;5227990;28;20039;-58
2022/01/07 03:45:56;;;;;;;6.72;6.32;;;;;;;2.15;100.00;101238.78;5228121;28;20031;-59
2022/01/07 03:48:26;;;;;;;7.25;6.63;;;;;;;2.18;100.00;101233.06;5228208;28;20115;-62
2022/01/07 03:50:57;;;;;;;7.88;7.10;;;;;;;2.17;100.00;101234.09;5227588;28;20032;-60
2022/01/07 03:53:27;;;;;;;8.02;7.30;;;;;;;2.19;100.00;101230.22;5227646;28;20495;-61
2022/01/07 03:55:58;;;;;;;8.45;7.93;;;;;;;2.22;100.00;101231.69;5228077;28;20484;-59
2022/01/07 03:58:28;;;;;;;6.68;6.38;;;;;;;2.21;100.00;101227.38;5246081;28;20024;-57
2022/01/07 04:00:59;;;;;;;7.18;6.88;;;;;;;2.23;100.00;101238.66;5227862;28;20036;-60
2022/01/07 04:03:29;;;;;;;8.07;7.57;;;;;;;2.23;100.00;101220.81;5227456;28;20033;-62
2022/01/07 04:06:03;;;;;;;10.05;9.40;;;;;;;2.25;100.00;101225.97;5228036;28;20026;-60
2022/01/07 04:08:34;;;;;;;9.25;8.52;;;;;;;2.26;100.00;101222.28;5228136;28;20131;-61
2022/01/07 04:11:04;;;;;;;8.32;7.10;;;;;;;2.26;100.00;101211.63;5228050;28;20077;-61
2022/01/07 04:13:34;;;;;;;7.88;7.25;;;;;;;2.28;100.00;101209.59;5227572;28;20417;-59
2022/01/07 04:16:05;;;;;;;9.07;8.57;;;;;;;2.29;100.00;101209.41;5227837;28;20016;-60
2022/01/07 04:18:36;;;;;;;10.43;9.13;;;;;;;2.33;100.00;101215.97;5230728;28;20366;-58
2022/01/07 04:21:06;;;;;;;9.48;8.57;;;;;;;2.34;100.00;101211.47;5231478;28;20028;-61
2022/01/07 04:23:37;;;;;;;9.10;8.43;;;;;;;2.36;100.00;101207.59;5231129;28;20028;-60
2022/01/07 04:26:07;;;;;;;8.20;7.60;;;;;;;2.39;100.00;101209.03;5231275;28;20373;-60
2022/01/07 04:28:38;;;;;;;7.93;7.40;;;;;;;2.40;100.00;101208.03;5231365;28;20453;-59
2022/01/07 04:31:08;;;;;;;10.18;9.15;;;;;;;2.40;100.00;101209.88;5249080;28;20570;-57
2022/01/07 04:33:39;;;;;;;8.52;8.02;;;;;;;2.43;100.00;101204.97;5230901;28;20039;-60
2022/01/07 04:36:09;;;;;;;9.93;9.00;;;;;;;2.44;100.00;101211.97;5231114;28;20093;-62
2022/01/07 04:38:40;;;;;;;12.25;9.30;;;;;;;2.46;100.00;101207.25;5230866;28;20028;-62
2022/01/07 04:41:10;;;;;;;8.55;7.80;;;;;;;2.46;100.00;101209.94;5230927;28;20117;-59
2022/01/07 04:43:40;;;;;;;9.20;8.55;;;;;;;2.48;100.00;101201.75;5248850;28;20121;-59
2022/01/07 04:46:11;;;;;;;8.95;8.25;;;;;;;2.50;100.00;101200.53;5230932;28;20032;-59
2022/01/07 04:48:42;;;;;;;10.95;10.15;;;;;;;2.50;100.00;101200.53;5231331;28;20534;-63
2022/01/07 04:51:12;;;;;;;10.18;9.25;;;;;;;2.40;100.00;101186.72;5230702;28;20040;-60
2022/01/07 04:53:43;;;;;;;15.20;10.63;;;;;;;2.53;100.00;101194.81;5230570;28;20037;-62
2022/01/07 04:56:13;;;;;;;8.80;8.20;;;;;;;2.43;100.00;101178.31;5230560;28;20043;-59
2022/01/07 04:58:44;;;;;;;10.65;9.88;;;;;;;2.54;100.00;101201.78;5230748;28;20111;-59
2022/01/07 05:01:14;;;;;;;10.77;9.85;;;;;;;2.58;100.00;101204.91;5230677;28;20028;-59
2022/01/07 05:03:45;;;;;;;11.73;10.65;;;;;;;2.59;100.00;101204.69;5230395;28;20029;-62
2022/01/07 05:08:45;;;;;;;13.13;9.82;;;;;;;2.62;100.00;101201.63;5248809;28;20059;-59
2022/01/07 05:11:16;;;;;;;11.32;9.05;;;;;;;2.50;100.00;101173.88;5230481;28;20043;-58
2022/01/07 05:13:46;;;;;;;10.27;9.57;;;;;;;2.66;100.00;101197.53;5230357;28;20173;-59
2022/01/07 05:16:17;;;;;;;10.00;9.00;;;;;;;2.66;100.00;101189.53;5230420;28;20025;-58
2022/01/07 05:18:47;;;;;;;11.93;10.85;;;;;;;2.71;100.00;101189.78;5230531;28;20032;-58
2022/01/07 05:21:18;;;;;;;10.27;9.50;;;;;;;2.72;100.00;101186.09;5230175;28;20077;-62
2022/01/07 05:23:48;;;;;;;8.93;8.30;;;;;;;2.76;100.00;101185.72;5229964;28;20116;-62
2022/01/07 05:26:19;;;;;;;10.95;8.27;;;;;;;2.76;100.00;101185.72;5230198;28;20436;-59
2022/01/07 05:28:50;;;;;;;10.43;9.52;;;;;;;2.74;100.00;101183.25;5230229;28;20144;-60
2022/01/07 05:31:25;;;;;;;11.75;10.57;;;;;;;2.81;100.00;101185.94;5229961;28;20432;-60
2022/01/07 05:33:56;;;;;;;10.63;8.75;;;;;;;2.83;100.00;101178.56;5229715;28;20032;-58
2022/01/07 05:36:26;;;;;;;14.05;9.77;;;;;;;2.69;100.00;101162.50;5247798;28;20024;-60
2022/01/07 05:38:57;;;;;;;12.52;11.07;;;;;;;2.85;100.00;101192.53;5229912;28;20116;-63
2022/01/07 05:41:27;;;;;;;14.45;9.95;;;;;;;2.85;100.00;101176.53;5229724;28;20029;-59
2022/01/07 05:43:58;;;;;;;11.38;10.48;;;;;;;2.88;100.00;101170.81;5229621;28;20477;-60
2022/01/07 05:46:28;;;;;;;15.30;9.68;;;;;;;2.72;100.00;101148.78;5247624;28;20468;-59
2022/01/07 05:48:58;;;;;;;10.77;9.95;;;;;;;2.71;100.00;101143.63;5229746;28;20028;-59
2022/01/07 05:51:29;;;;;;;11.60;10.10;;;;;;;2.90;100.00;101171.41;5228922;28;20028;-62
2022/01/07 05:53:59;;;;;;;14.80;10.02;;;;;;;2.66;100.00;101133.56;5228649;28;20080;-62
2022/01/07 05:56:31;;;;;;;10.85;9.93;;;;;;;2.92;100.00;101175.53;5228671;28;20533;-63
2022/01/07 05:59:02;;;;;;;11.18;10.23;;;;;;;2.82;100.00;101172.41;5229053;28;20033;-62
2022/01/07 06:01:32;;;;;;;11.43;10.25;;;;;;;2.97;100.00;101180.28;5228843;28;20162;-62
2022/01/07 06:04:03;;;;;;;9.57;8.68;;;;;;;2.97;100.00;101174.94;5228399;28;20539;-62
2022/01/07 06:06:33;;;;;;;11.20;9.38;;;;;;;2.98;100.00;101176.59;5228788;28;20032;-62
2022/01/07 06:09:04;;;;;;;10.57;9.52;;;;;;;3.00;100.00;101178.03;5228554;28;20068;-62
2022/01/07 06:11:34;;;;;;;10.35;9.43;;;;;;;2.99;100.00;101170.22;5228588;28;20027;-63
2022/01/07 06:14:05;;;;;;;14.85;11.15;;;;;;;3.02;100.00;101168.00;5228389;28;20031;-63
2022/01/07 06:16:36;;;;;;;16.65;10.75;;;;;;;3.05;100.00;101166.78;5228490;28;20158;-62
2022/01/07 06:19:07;;;;;;;11.57;10.05;;;;;;;3.03;100.00;101169.63;5228545;28;20028;-63
2022/01/07 06:21:37;;;;;;;9.45;8.85;;;;;;;3.08;100.00;101171.72;5228425;28;20389;-62
2022/01/07 06:24:08;;;;;;;11.18;10.30;;;;;;;3.09;100.00;101176.03;5228122;28;20040;-62
2022/01/07 06:26:38;;;;;;;13.65;12.13;;;;;;;3.10;100.00;101185.69;5228579;28;20504;-62
2022/01/07 06:29:10;;;;;;;10.30;9.38;;;;;;;2.99;100.00;101156.88;5228512;28;20742;-60
2022/01/07 06:31:40;;;;;;;12.20;10.82;;;;;;;3.13;100.00;101171.94;5228163;28;20028;-62
2022/01/07 06:34:11;;;;;;;11.55;10.75;;;;;;;3.08;100.00;101162.88;5228036;28;20051;-62
2022/01/07 06:36:41;;;;;;;11.27;10.52;;;;;;;3.17;100.00;101159.84;5228158;28;20473;-62
2022/01/07 06:39:12;;;;;;;9.90;9.27;;;;;;;3.20;100.00;101179.94;5228075;28;20032;-62
2022/01/07 06:41:42;;;;;;;9.45;8.65;;;;;;;3.20;100.00;101170.09;5227653;28;20031;-61
2022/01/07 06:44:14;;;;;;;10.70;9.80;;;;;;;3.20;100.00;101180.78;5227826;28;20147;-62
2022/01/07 06:46:45;;;;;;;12.13;10.73;;;;;;;3.24;100.00;101178.53;5227934;28;20028;-63
2022/01/07 06:49:15;;;;;;;9.77;8.98;;;;;;;3.25;100.00;101199.69;5228468;28;20036;-62
2022/01/07 06:51:46;;;;;;;11.98;11.10;;;;;;;3.26;100.00;101181.81;5227937;28;20021;-62
2022/01/07 06:54:16;;;;;;;10.23;9.35;;;;;;;3.05;100.00;101146.25;5227319;28;20465;-60
2022/01/07 06:56:47;;;;;;;11.02;10.05;;;;;;;3.29;100.00;101184.09;5227740;28;20054;-59
2022/01/07 06:59:17;;;;;;;11.55;10.57;;;;;;;3.31;100.00;101188.22;5227885;28;20465;-62
2022/01/07 07:01:48;;;;;;;12.95;11.80;;;;;;;3.32;100.00;101181.84;5227831;28;20353;-61
2022/01/07 07:04:19;;;;;;;16.95;11.40;;;;;;;3.07;100.00;101142.56;5227359;28;20086;-60
2022/01/07 07:06:49;;;;;;;9.60;8.77;;;;;;;3.23;100.00;101155.53;5227806;28;20021;-60
2022/01/07 07:09:20;;;;;;;10.93;9.90;;;;;;;3.36;100.00;101179.59;5227487;28;20078;-63
2022/01/07 07:11:51;;;;;;;11.43;10.40;;;;;;;3.39;100.00;101181.88;5227703;28;20020;-62
2022/01/07 07:14:21;;;;;;;9.90;9.02;;;;;;;3.38;100.00;101175.72;5227274;28;20118;-62
2022/01/07 07:16:51;;;;;;;10.38;9.57;;;;;;;3.41;100.00;101171.81;5227460;28;20074;-61
2022/01/07 07:19:22;;;;;;;11.18;10.07;;;;;;;3.39;100.00;101173.88;5227278;28;20040;-61
2022/01/07 07:21:53;;;;;;;10.45;9.73;;;;;;;3.35;100.00;101173.44;5227791;28;20380;-61
2022/01/07 07:24:23;;;;;;;11.23;10.13;;;;;;;3.41;100.00;101176.34;5227216;28;20036;-59
2022/01/07 07:26:54;;;;;;;15.82;10.55;;;;;;;3.13;100.00;101136.44;5227584;28;20032;-62
2022/01/07 07:29:24;;;;;;;9.15;8.55;;;;;;;3.02;100.00;101119.97;5227812;28;20048;-59
2022/01/07 07:31:57;;;;;;;10.70;9.10;;;;;;;3.31;100.00;101166.03;5227409;28;20033;-61
2022/01/07 07:37:13;;;;;;;13.07;10.75;;;;;;;3.38;100.00;101172.22;5245541;28;20025;-62
2022/01/07 07:39:44;;;;;;;10.48;9.48;;;;;;;3.34;100.00;101171.81;5227539;28;20567;-63
2022/01/07 07:42:14;;;;;;;13.73;8.90;;;;;;;3.32;100.00;101176.53;5244211;28;20032;-61
2022/01/07 07:44:45;;;;;;;16.17;11.35;;;;;;;3.28;100.00;101183.28;5227881;28;20052;-62
2022/01/07 07:47:15;;;;;;;24.77;12.00;;;;;;;3.23;100.00;101179.56;5246165;28;20530;-62
2022/01/07 07:49:46;;;;;;;11.20;10.20;;;;;;;3.25;100.00;101172.16;5244415;28;20033;-61
2022/01/07 07:52:16;;;;;;;9.70;8.90;;;;;;;3.24;100.00;101176.69;5222994;28;20115;-63
2022/01/07 07:54:47;;;;;;;9.30;8.52;;;;;;;3.27;100.00;101180.81;5231097;28;20028;-63
2022/01/07 07:57:19;;;;;;;13.48;11.15;;;;;;;3.35;100.00;101184.13;5231401;28;20017;-63
2022/01/07 07:59:50;;;;;;;10.30;9.50;;;;;;;3.27;100.00;101159.44;5231599;28;20377;-63
2022/01/07 08:02:20;;;;;;;10.15;9.10;;;;;;;3.45;100.00;101177.59;5231193;28;20078;-63
2022/01/07 08:04:51;;;;;;;8.98;8.48;;;;;;;3.44;100.00;101173.28;5231232;28;20028;-61
2022/01/07 08:07:21;;;;;;;10.10;9.27;;;;;;;3.42;100.00;101164.66;5231258;28;20023;-63
2022/01/07 08:09:53;;;;;;;10.80;9.73;;;;;;;3.44;100.00;101173.28;5231438;28;20549;-64
2022/01/07 08:12:51;;;;;;;12.75;10.32;;;;;;;3.44;100.00;101160.75;5231387;28;20111;-63
2022/01/07 08:18:09;;;;;;;9.45;8.43;;;;;;;3.38;100.00;101162.38;5249412;28;20043;-61
2022/01/07 08:20:40;;;;;;;17.73;10.15;;;;;;;3.24;100.00;101128.66;5229815;28;20028;-66
2022/01/07 08:23:10;;;;;;;15.75;9.88;;;;;;;3.39;100.00;101156.00;5230412;28;20502;-63
2022/01/07 08:25:41;;;;;;;10.30;9.30;;;;;;;3.37;100.00;101157.22;5231276;28;20024;-63
2022/01/07 08:28:13;;;;;;;12.07;8.93;;;;;;;3.18;100.00;101118.78;5231254;28;20017;-63
2022/01/07 08:36:29;;;;;;;10.40;9.40;;;;;;;3.56;100.00;101179.66;5249252;28;20036;-63
2022/01/07 08:39:00;;;;;;;9.25;8.55;;;;;;;3.62;100.00;101194.88;5230970;28;20459;-63
2022/01/07 08:41:31;;;;;;;9.05;8.45;;;;;;;3.33;100.00;101151.47;5230974;28;20029;-63
2022/01/07 08:44:03;;;;;;;8.48;7.93;;;;;;;3.49;100.00;101184.16;5230708;28;20028;-64
2022/01/07 08:46:33;;;;;;;17.13;8.63;;;;;;;3.35;100.00;101188.63;5230831;28;20516;-63
2022/01/07 08:49:05;;;;;;;9.05;8.20;;;;;;;3.33;100.00;101194.19;5230656;28;20028;-65
2022/01/07 08:51:36;;;;;;;8.27;7.25;;;;;;;3.18;100.00;101185.47;5230623;28;20024;-64
2022/01/07 08:54:07;;;;;;;7.53;6.93;;;;;;;3.21;100.00;101193.09;5230355;28;20032;-64
2022/01/07 08:56:37;;;;;;;11.45;10.30;;;;;;;3.29;100.00;101206.28;5230498;28;20035;-64
2022/01/07 08:59:08;;;;;;;8.43;7.88;;;;;;;3.31;100.00;101196.22;5230607;28;20028;-63
2022/01/07 09:01:38;;;;;;;10.63;9.25;;;;;;;3.25;100.00;101191.69;5230290;28;20485;-64
2022/01/07 09:04:09;;;;;;;8.43;7.80;;;;;;;3.17;100.00;101178.53;5229762;28;20055;-64
2022/01/07 09:06:39;;;;;;;10.50;9.23;;;;;;;3.33;100.00;101186.16;5230403;28;20123;-65
2022/01/07 09:09:10;;;;;;;9.57;8.82;;;;;;;3.44;100.00;101189.28;5230467;28;20017;-64
2022/01/07 09:11:40;;;;;;;11.95;7.82;;;;;;;3.48;100.00;101177.97;5230302;28;20103;-64
2022/01/07 09:14:11;;;;;;;9.00;8.25;;;;;;;3.52;100.00;101183.75;5230100;28;20025;-65
2022/01/07 09:16:41;;;;;;;8.68;8.02;;;;;;;3.51;100.00;101176.75;5230326;28;20029;-64
2022/01/07 09:19:12;;;;;;;10.57;7.60;;;;;;;3.58;100.00;101181.09;5230641;28;20021;-63
2022/01/07 09:21:42;;;;;;;8.70;8.05;;;;;;;3.64;100.00;101168.78;5230295;28;20024;-63
2022/01/07 09:24:13;;;;;;;7.82;6.82;;;;;;;3.76;100.00;101174.34;5230352;28;20024;-64
2022/01/07 09:26:43;;;;;;;8.20;7.65;;;;;;;3.77;100.00;101167.97;5230383;28;20028;-61
2022/01/07 09:29:14;;;;;;;12.45;8.27;;;;;;;3.78;100.00;101161.59;5230460;28;20029;-62
2022/01/07 09:31:44;;;;;;;8.95;8.40;;;;;;;3.77;100.00;101182.16;5230778;28;20020;-63
2022/01/07 09:34:15;;;;;;;7.97;6.90;;;;;;;3.76;100.00;101158.31;5230205;28;20074;-63
2022/01/07 09:36:45;;;;;;;6.97;6.57;;;;;;;3.84;100.00;101161.63;5230159;28;20016;-63
2022/01/07 09:39:16;;;;;;;11.00;7.35;;;;;;;3.93;100.00;101176.44;5230184;28;20028;-62
2022/01/07 09:41:47;;;;;;;7.05;6.43;;;;;;;3.88;100.00;101173.53;5230058;28;20025;-62
2022/01/07 09:44:17;;;;;;;8.77;7.30;;;;;;;3.62;100.00;101146.81;5229627;28;20059;-63
2022/01/07 09:46:48;;;;;;;7.80;6.97;;;;;;;3.73;100.00;101175.59;5230101;28;20020;-63
2022/01/07 09:49:18;;;;;;;7.43;6.60;;;;;;;3.72;100.00;101168.59;5229934;28;20024;-63
2022/01/07 09:51:49;;;;;;;8.77;6.72;;;;;;;3.77;100.00;101171.47;5229917;28;20472;-61
2022/01/07 09:54:19;;;;;;;10.38;8.00;;;;;;;3.81;100.00;101156.69;5229968;28;20077;-63
2022/01/07 09:56:49;;;;;;;6.70;6.18;;;;;;;3.89;100.00;101169.84;5229683;28;20027;-63
2022/01/07 09:59:20;;;;;;;7.07;5.93;;;;;;;3.93;100.00;101160.41;5230131;28;20064;-63
2022/01/07 10:01:59;;;;;;;9.63;6.13;;;;;;;3.97;100.00;101158.97;5230156;28;20340;-63
2022/01/07 10:04:33;;;;;;;8.63;7.82;;;;;;;4.00;100.00;101158.56;5229309;28;20085;-61
2022/01/07 10:07:21;;;;;;;6.43;5.82;;;;;;;4.15;100.00;101141.47;5229710;28;20094;-63
2022/01/07 10:10:06;;;;;;;9.35;7.07;;;;;;;4.46;100.00;101149.66;5229860;28;20035;-63
2022/01/07 10:13:04;;;;;;;7.35;6.82;;;;;;;4.78;100.00;101147.13;5229797;28;20026;-63
2022/01/07 10:15:36;;;;;;;7.05;6.38;;;;;;;5.05;100.00;101152.16;5228713;28;20117;-62
2022/01/07 10:18:15;;;;;;;6.88;6.28;;;;;;;4.49;100.00;101031.59;5229139;28;20480;-63
2022/01/07 10:20:48;;;;;;;12.63;7.13;;;;;;;5.29;100.00;101145.25;5229172;28;20043;-63
2022/01/07 10:23:29;;;;;;;13.13;6.70;;;;;;;5.23;100.00;101140.75;5229462;28;20033;-63
2022/01/07 10:25:59;;;;;;;6.18;5.78;;;;;;;5.23;100.00;101142.59;5229240;28;20025;-63
2022/01/07 10:28:32;;;;;;;10.32;6.47;;;;;;;5.28;100.00;101140.91;5229420;28;20019;-63
2022/01/07 10:31:03;;;;;;;7.57;6.47;;;;;;;5.38;100.00;101133.25;5229243;28;20400;-63
2022/01/07 10:33:41;;;;;;;20.52;5.75;;;;;;;5.50;100.00;101133.38;5228859;28;20035;-62
2022/01/07 10:36:11;;;;;;;14.10;6.43;;;;;;;5.50;100.00;101141.41;5228944;28;20481;-64
2022/01/07 10:38:51;;;;;;;5.70;5.25;;;;;;;5.41;100.00;101145.41;5229055;28;20031;-63
2022/01/07 10:41:22;;;;;;;7.38;6.82;;;;;;;5.35;100.00;101141.72;5228884;28;20406;-62
2022/01/07 10:43:53;;;;;;;8.90;6.47;;;;;;;5.25;100.00;101143.19;5228980;28;20029;-63
2022/01/07 10:46:27;;;;;;;8.55;7.32;;;;;;;5.15;100.00;101140.19;5229798;28;20055;-65
2022/01/07 10:49:03;;;;;;;6.18;5.78;;;;;;;4.95;100.00;101142.94;5233449;28;20495;-65
2022/01/07 10:51:38;;;;;;;7.65;7.05;;;;;;;4.80;100.00;101139.72;5231672;28;20039;-65
2022/01/07 10:54:12;;;;;;;8.63;7.78;;;;;;;4.69;100.00;101143.84;5229405;28;20027;-63
2022/01/07 10:56:47;;;;;;;9.23;7.50;;;;;;;4.60;100.00;101150.47;5232557;28;20028;-63
2022/01/07 10:59:19;;;;;;;10.02;7.95;;;;;;;4.64;100.00;101149.00;5234821;28;20032;-65
2022/01/07 11:01:58;;;;;;;9.75;7.10;;;;;;;4.70;100.00;101140.13;5231061;28;20107;-65
2022/01/07 11:04:32;;;;;;;10.20;7.25;;;;;;;4.70;100.00;101118.75;5233579;28;20044;-64
2022/01/07 11:07:09;;;;;;;13.45;8.70;;;;;;;4.87;100.00;101130.63;5234664;28;20012;-64
2022/01/07 11:09:40;;;;;;;14.30;8.35;;;;;;;4.84;100.00;101127.56;5233461;28;20515;-64
2022/01/07 11:12:11;;;;;;;6.57;6.28;;;;;;;4.67;100.00;101103.94;5231599;28;20024;-64
2022/01/07 11:14:42;;;;;;;8.70;7.90;;;;;;;4.90;100.00;101132.06;5231480;28;20024;-64
2022/01/07 11:17:20;;;;;;;8.25;7.53;;;;;;;4.77;100.00;101114.19;5229708;28;20100;-64
2022/01/07 11:19:56;;;;;;;7.85;7.05;;;;;;;4.88;100.00;101131.44;5229623;28;20035;-64
2022/01/07 11:22:28;;;;;;;8.15;7.53;;;;;;;4.90;100.00;101121.34;5229256;28;20445;-65
2022/01/07 11:25:04;;;;;;;13.35;8.73;;;;;;;4.94;100.00;101125.22;5228984;28;20028;-63
2022/01/07 11:27:54;;;;;;;7.40;6.80;;;;;;;4.94;100.00;101119.88;5232558;28;20021;-63
2022/01/07 11:30:28;;;;;;;8.55;6.97;;;;;;;4.96;100.00;101112.47;5232989;28;20028;-64
2022/01/07 11:33:00;;;;;;;7.90;7.40;;;;;;;4.93;100.00;101118.22;5233197;28;20059;-64
2022/01/07 11:35:31;;;;;;;6.25;5.85;;;;;;;4.91;100.00;101120.31;5233573;28;20052;-63
2022/01/07 11:38:01;;;;;;;9.30;7.65;;;;;;;4.88;100.00;101129.59;5233561;28;20063;-64
2022/01/07 11:40:32;;;;;;;7.80;7.20;;;;;;;4.89;100.00;101117.88;5233296;28;20032;-64
2022/01/07 11:43:25;;;;;;;12.20;6.72;;;;;;;4.90;100.00;101122.19;5233234;28;20035;-65
2022/01/07 11:45:56;;;;;;;7.10;6.53;;;;;;;4.68;100.00;101081.50;5232925;28;20028;-65
2022/01/07 11:48:30;;;;;;;6.70;5.55;;;;;;;5.00;100.00;101119.84;5233181;28;20021;-64
2022/01/07 11:51:01;;;;;;;6.40;4.90;;;;;;;5.03;100.00;101107.91;5232986;28;20051;-65
2022/01/07 11:53:43;;;;;;;22.05;5.70;;;;;;;5.06;100.00;101115.50;5233150;28;20032;-65
2022/01/07 11:56:33;;;;;;;6.10;5.50;;;;;;;5.06;100.00;101112.84;5232661;28;20085;-65